Time;durP1;ratioP1;P1;durP2;ratioP2;P2;SDS_P1;SDS_P2;PMS_P1;PMS_P2;Temp;Humidity;BMP_temperature;BMP_pressure;BME280_temperature;BME280_humidity;BME280_pressure;Samples;Min_cycle;Max_cycle;Signal;HPM_P1;HPM_P2
2021/10/28 00:13:08;;;;;;;;;6.50;6.00;;;;;22.35;42.38;101534.34;5009434;28;51026;-48
2021/10/28 00:15:37;;;;;;;;;7.25;6.00;;;;;22.33;42.08;101520.78;5003416;28;51241;-45
2021/10/28 00:20:36;;;;;;;;;7.25;6.25;;;;;22.31;42.05;101528.44;5008967;28;51030;-44
2021/10/28 00:23:06;;;;;;;;;7.25;5.00;;;;;22.29;42.71;101516.75;5005604;28;52635;-44
2021/10/28 00:25:34;;;;;;;;;10.50;7.00;;;;;22.29;42.39;101511.22;5004579;28;50959;-45
2021/10/28 00:28:00;;;;;;;;;8.25;6.50;;;;;22.27;42.06;101505.06;5004901;28;51217;-45
2021/10/28 00:30:25;;;;;;;;;7.00;6.50;;;;;22.28;42.72;101508.69;5007746;28;51197;-45
2021/10/28 00:32:51;;;;;;;;;6.00;5.00;;;;;22.26;42.63;101500.63;5009894;28;51084;-46
2021/10/28 00:35:17;;;;;;;;;6.00;6.00;;;;;22.24;42.11;101491.72;5009041;28;51238;-44
2021/10/28 00:37:42;;;;;;;;;4.50;4.50;;;;;22.23;42.67;101495.56;5012898;28;51166;-46
2021/10/28 00:40:10;;;;;;;;;6.75;6.75;;;;;22.23;42.13;101494.72;5009790;28;51136;-50
2021/10/28 00:42:37;;;;;;;;;8.50;6.00;;;;;22.21;42.28;101492.16;5011211;28;51957;-51
2021/10/28 00:45:05;;;;;;;;;9.75;6.00;;;;;22.19;42.51;101492.38;5008799;28;51491;-47
2021/10/28 00:47:33;;;;;;;;;7.50;7.50;;;;;22.19;42.74;101494.28;5010155;28;51167;-46
2021/10/28 00:49:59;;;;;;;;;9.00;6.50;;;;;22.18;42.14;101487.06;5013572;28;51268;-44
2021/10/28 00:52:25;;;;;;;;;7.00;5.00;;;;;22.16;42.19;101486.44;5010020;28;51426;-45
2021/10/28 00:54:50;;;;;;;;;8.00;6.50;;;;;22.15;42.35;101482.84;5010572;28;51204;-46
2021/10/28 00:57:16;;;;;;;;;9.00;7.00;;;;;22.15;42.67;101479.22;5011886;28;51101;-45
2021/10/28 00:59:42;;;;;;;;;7.00;5.00;;;;;22.14;41.96;101477.53;5011430;28;51193;-47
2021/10/28 01:02:08;;;;;;;;;4.25;4.25;;;;;22.13;42.25;101479.44;5008292;28;52821;-43
2021/10/28 01:04:33;;;;;;;;;8.25;5.75;;;;;22.13;42.56;101475.84;5009291;28;51263;-46
2021/10/28 01:06:59;;;;;;;;;5.00;5.00;;;;;22.10;42.79;101473.53;5010352;28;51132;-45
2021/10/28 01:09:24;;;;;;;;;4.50;4.50;;;;;22.10;42.58;101470.78;5013624;28;51420;-44
2021/10/28 01:11:53;;;;;;;;;7.25;6.00;;;;;22.09;42.35;101461.66;5010797;28;51134;-44
2021/10/28 01:14:19;;;;;;;;;6.50;6.25;;;;;22.08;42.15;101464.59;5012784;28;51426;-46
2021/10/28 01:16:44;;;;;;;;;6.00;6.00;;;;;22.07;42.71;101454.63;5004309;28;51345;-44
2021/10/28 01:19:10;;;;;;;;;6.75;5.00;;;;;22.07;42.67;101465.69;5005120;28;51047;-45
2021/10/28 01:21:36;;;;;;;;;8.75;7.25;;;;;22.04;42.77;101453.13;5014824;28;52070;-45
2021/10/28 01:24:01;;;;;;;;;7.00;7.00;;;;;22.04;42.17;101447.63;5004934;28;50968;-45
2021/10/28 01:26:27;;;;;;;;;6.25;6.00;;;;;22.04;42.58;101449.53;5005346;28;51071;-48
2021/10/28 01:28:56;;;;;;;;;6.25;6.00;;;;;22.03;42.80;101456.13;5003587;28;51297;-51
2021/10/28 01:31:23;;;;;;;;;6.75;5.25;;;;;22.02;42.38;101458.03;5000538;28;52552;-51
2021/10/28 01:33:50;;;;;;;;;6.00;5.75;;;;;22.02;42.49;101454.44;5005167;28;51284;-49
2021/10/28 01:36:17;;;;;;;;;4.00;4.00;;;;;22.00;42.33;101446.38;5008248;28;51111;-45
2021/10/28 01:38:43;;;;;;;;;7.00;5.50;;;;;22.00;42.25;101437.25;4999763;28;51369;-46
2021/10/28 01:41:08;;;;;;;;;4.75;4.00;;;;;21.99;42.95;101443.81;5007841;28;51664;-49
2021/10/28 01:43:34;;;;;;;;;7.00;6.75;;;;;21.98;42.28;101433.84;4990031;28;51140;-48
2021/10/28 01:46:00;;;;;;;;;4.75;4.00;;;;;21.98;42.91;101436.59;5010317;28;51035;-50
2021/10/28 01:48:27;;;;;;;;;5.50;5.50;;;;;21.96;42.34;101425.78;5004117;28;51067;-47
2021/10/28 01:50:53;;;;;;;;;6.75;6.75;;;;;21.96;42.36;101433.22;5008988;28;51955;-48
2021/10/28 01:53:19;;;;;;;;;9.00;6.25;;;;;21.95;42.60;101426.00;5004791;28;51111;-49
2021/10/28 01:55:46;;;;;;;;;6.00;6.00;;;;;21.94;42.42;101435.34;4999283;28;51138;-51
2021/10/28 01:58:11;;;;;;;;;6.75;6.75;;;;;21.93;42.21;101433.66;5005607;28;50998;-49
2021/10/28 02:00:39;;;;;;;;;6.00;5.25;;;;;21.92;43.06;101426.47;5000882;28;51881;-50
2021/10/28 02:03:05;;;;;;;;;6.00;6.00;;;;;21.92;42.60;101427.31;5005648;28;51465;-51
2021/10/28 02:05:31;;;;;;;;;6.25;5.50;;;;;21.90;42.81;101423.91;5004485;28;51233;-50
2021/10/28 02:07:56;;;;;;;;;5.25;5.00;;;;;21.89;42.52;101420.31;5004149;28;50972;-51
2021/10/28 02:10:22;;;;;;;;;6.00;5.00;;;;;21.88;42.85;101418.63;5005851;28;51118;-45
2021/10/28 02:12:49;;;;;;;;;5.25;5.25;;;;;21.88;42.83;101415.88;5001026;28;51121;-50
2021/10/28 02:15:18;;;;;;;;;6.50;6.25;;;;;21.86;42.74;101409.69;5005304;28;51369;-50
2021/10/28 02:17:44;;;;;;;;;5.25;5.25;;;;;21.87;42.53;101410.53;5013110;28;51208;-48
2021/10/28 02:20:12;;;;;;;;;5.25;5.00;;;;;21.86;42.54;101400.56;5005981;28;51908;-49
2021/10/28 02:22:38;;;;;;;;;7.00;6.00;;;;;21.85;42.42;101405.25;4998477;28;51348;-47
2021/10/28 02:25:05;;;;;;;;;4.75;4.75;;;;;21.84;42.51;101394.44;5003504;28;51110;-51
2021/10/28 02:27:30;;;;;;;;;5.25;5.25;;;;;21.82;42.37;101400.19;5007467;28;51314;-47
2021/10/28 02:29:56;;;;;;;;;4.75;4.75;;;;;21.82;42.92;101397.41;5007682;28;51176;-49
2021/10/28 02:32:21;;;;;;;;;5.00;4.75;;;;;21.82;42.95;101393.81;5005843;28;52302;-48
2021/10/28 02:34:47;;;;;;;;;7.75;6.50;;;;;21.81;42.90;101379.19;5007642;28;51292;-50
2021/10/28 02:37:12;;;;;;;;;3.50;3.50;;;;;21.80;42.99;101371.97;5008426;28;51557;-48
2021/10/28 02:39:38;;;;;;;;;4.25;4.25;;;;;21.79;42.40;101374.97;5011862;28;51701;-49
2021/10/28 02:42:04;;;;;;;;;8.50;4.75;;;;;21.79;42.75;101369.44;5010540;28;50888;-46
2021/10/28 02:44:29;;;;;;;;;6.50;5.25;;;;;21.77;42.71;101368.78;5002244;28;50892;-51
2021/10/28 02:46:55;;;;;;;;;7.00;6.00;;;;;21.76;42.67;101365.19;5000966;28;51103;-47
2021/10/28 02:49:21;;;;;;;;;4.75;4.75;;;;;21.76;42.62;101367.09;5003870;28;51564;-50
2021/10/28 02:51:47;;;;;;;;;6.00;6.00;;;;;21.74;42.98;101367.31;5002409;28;51148;-50
2021/10/28 02:54:18;;;;;;;;;4.75;4.25;;;;;21.74;43.04;101363.72;5003200;28;51325;-48
2021/10/28 02:56:44;;;;;;;;;5.75;4.75;;;;;21.72;42.44;101361.19;5009201;28;51141;-49
2021/10/28 02:59:10;;;;;;;;;5.75;5.00;;;;;21.72;42.53;101366.69;5007457;28;52650;-48
2021/10/28 03:01:50;;;;;;;;;4.25;4.25;;;;;21.71;42.82;101365.00;5014335;28;51148;-48
2021/10/28 03:04:19;;;;;;;;;5.75;5.00;;;;;21.71;42.98;101366.91;5005953;28;51114;-50
2021/10/28 03:06:45;;;;;;;;;6.00;4.00;;;;;21.69;42.93;101367.16;5003014;28;51315;-51
2021/10/28 03:09:16;;;;;;;;;7.00;4.00;;;;;21.69;43.03;101364.38;5003646;28;51870;-47
2021/10/28 03:11:43;;;;;;;;;4.00;4.00;;;;;21.68;42.42;101359.94;5007854;28;51337;-51
2021/10/28 03:14:15;;;;;;;;;5.00;5.00;;;;;21.66;42.56;101356.53;5006463;28;50918;-50
2021/10/28 03:27:18;;;;;;;;;6.00;6.00;;;;;21.63;42.98;101343.19;5006904;28;51153;-51
2021/10/28 03:29:43;;;;;;;;;5.00;4.50;;;;;21.63;42.57;101342.34;5001372;28;51236;-48
2021/10/28 03:32:09;;;;;;;;;4.00;4.00;;;;;21.61;43.02;101348.09;5007872;28;51160;-49
2021/10/28 03:34:35;;;;;;;;;7.00;5.00;;;;;21.60;43.20;101336.22;5010403;28;52419;-50
2021/10/28 03:42:09;;;;;;;;;5.25;5.00;;;;;21.58;42.88;101327.31;5008757;28;50979;-50
2021/10/28 04:28:54;;;;;;;;;6.25;4.50;;;;;21.44;43.13;101311.88;5010895;28;51544;-48
2021/10/28 04:29:55;;;;;;;;;3.25;3.25;;;;;21.43;42.75;101312.09;5007920;28;51205;-50
2021/10/28 04:32:21;;;;;;;;;5.75;5.00;;;;;21.42;43.13;101313.16;5003016;28;51094;-48
2021/10/28 04:34:47;;;;;;;;;5.25;5.25;;;;;21.41;42.64;101311.47;5011734;28;51224;-50
2021/10/28 04:37:12;;;;;;;;;8.00;6.00;;;;;21.41;42.77;101305.97;5009006;28;50984;-48
2021/10/28 04:39:37;;;;;;;;;3.75;3.75;;;;;21.41;43.21;101308.72;5008360;28;51137;-50
2021/10/28 04:42:04;;;;;;;;;6.00;4.75;;;;;21.39;42.97;101310.84;5007191;28;51090;-50
2021/10/28 04:44:29;;;;;;;;;5.25;4.50;;;;;21.39;43.06;101316.34;5000499;28;50968;-51
2021/10/28 04:46:54;;;;;;;;;4.75;4.00;;;;;21.39;42.66;101316.34;5007851;28;51457;-52
2021/10/28 04:49:20;;;;;;;;;3.25;3.00;;;;;21.37;43.19;101313.81;5008332;28;52137;-49
2021/10/28 04:51:46;;;;;;;;;5.00;3.50;;;;;21.37;43.31;101316.59;5012554;28;52632;-49
2021/10/28 04:54:11;;;;;;;;;6.00;5.00;;;;;21.36;42.74;101308.50;5007139;28;51466;-49
2021/10/28 04:56:36;;;;;;;;;5.00;5.00;;;;;21.34;42.80;101314.25;5012115;28;51116;-49
2021/10/28 04:59:02;;;;;;;;;5.00;4.00;;;;;21.35;43.21;101315.09;5001429;28;51184;-50
2021/10/28 05:01:27;;;;;;;;;4.50;4.50;;;;;21.33;43.20;101313.38;5006955;28;51873;-50
2021/10/28 05:03:53;;;;;;;;;5.00;5.00;;;;;21.33;42.97;101307.03;5010720;28;51272;-49
2021/10/28 05:06:18;;;;;;;;;4.75;3.25;;;;;21.33;43.16;101312.53;5005465;28;51304;-48
2021/10/28 05:08:44;;;;;;;;;4.00;3.75;;;;;21.32;42.86;101310.84;5012809;28;51621;-46
2021/10/28 05:11:10;;;;;;;;;4.50;4.25;;;;;21.31;43.13;101307.25;5005409;28;51095;-49
2021/10/28 05:13:35;;;;;;;;;5.00;4.25;;;;;21.29;43.35;101305.78;5005496;28;51035;-48
2021/10/28 05:16:00;;;;;;;;;5.00;5.00;;;;;21.29;42.81;101306.63;5002405;28;51108;-50
2021/10/28 05:18:26;;;;;;;;;6.50;4.50;;;;;21.27;43.22;101305.16;5003962;28;51591;-50
2021/10/28 05:20:52;;;;;;;;;6.00;3.50;;;;;21.28;43.18;101304.94;5000239;28;51195;-48
2021/10/28 05:23:18;;;;;;;;;4.75;3.75;;;;;21.26;43.33;101300.72;5011354;28;51437;-51
2021/10/28 05:25:44;;;;;;;;;5.50;5.50;;;;;21.27;42.87;101303.25;5011977;28;51201;-46
2021/10/28 05:28:10;;;;;;;;;5.50;5.00;;;;;21.27;42.87;101302.41;5012870;28;51047;-49
2021/10/28 05:30:35;;;;;;;;;5.75;4.75;;;;;21.27;43.42;101300.50;5005988;28;51097;-49
2021/10/28 05:33:01;;;;;;;;;5.50;5.00;;;;;21.26;43.21;101304.31;5013247;28;51190;-50
2021/10/28 05:35:27;;;;;;;;;5.00;5.00;;;;;21.25;43.27;101312.75;4998097;28;51104;-46
2021/10/28 05:37:53;;;;;;;;;3.00;3.00;;;;;21.25;43.34;101302.56;5005971;28;51205;-48
2021/10/28 05:40:20;;;;;;;;;5.50;5.50;;;;;21.24;43.43;101314.66;5007331;28;51291;-51
2021/10/28 05:42:49;;;;;;;;;5.00;5.00;;;;;21.24;43.42;101314.66;5009331;28;51116;-45
2021/10/28 05:45:15;;;;;;;;;6.00;5.00;;;;;21.23;43.34;101314.88;5005472;28;51262;-45
2021/10/28 05:47:41;;;;;;;;;6.25;4.25;;;;;21.22;43.29;101311.28;5012882;28;51371;-49
2021/10/28 05:50:10;;;;;;;;;3.75;3.75;;;;;21.21;43.29;101309.59;5009286;28;51631;-50
2021/10/28 05:52:35;;;;;;;;;5.75;4.50;;;;;21.20;43.25;101310.66;5012919;28;51425;-50
2021/10/28 05:55:03;;;;;;;;;4.50;4.50;;;;;21.21;43.43;101317.00;5008155;28;51130;-49
2021/10/28 05:57:29;;;;;;;;;8.00;8.00;;;;;21.20;42.54;101310.66;5012680;28;51141;-46
2021/10/28 05:59:54;;;;;;;;;9.25;9.00;;;;;21.17;42.36;101307.50;5001861;28;51715;-49
2021/10/28 06:02:19;;;;;;;;;13.50;9.75;;;;;21.14;41.93;101305.16;5010749;28;51302;-49
2021/10/28 06:04:45;;;;;;;;;14.50;12.00;;;;;21.09;41.94;101314.06;5003266;28;51162;-49
2021/10/28 06:07:10;;;;;;;;;13.50;10.50;;;;;21.03;41.44;101306.66;5004688;28;51156;-47
2021/10/28 06:09:35;;;;;;;;;14.25;10.75;;;;;20.96;41.63;101312.19;5009398;28;52386;-49
2021/10/28 06:12:01;;;;;;;;;13.75;12.75;;;;;20.94;41.52;101313.44;5008366;28;50927;-44
2021/10/28 06:14:27;;;;;;;;;15.25;10.75;;;;;20.87;41.03;101307.13;5000881;28;51305;-48
2021/10/28 06:16:56;;;;;;;;;13.75;12.75;;;;;20.82;40.98;101305.00;4997677;28;51120;-47
2021/10/28 06:19:22;;;;;;;;;15.00;12.50;;;;;20.77;41.13;101304.78;5004733;28;51089;-44
2021/10/28 06:21:47;;;;;;;;;14.75;11.75;;;;;20.72;41.19;101307.31;5004996;28;51130;-49
2021/10/28 06:24:13;;;;;;;;;15.00;13.50;;;;;20.68;41.23;101311.56;5002757;28;51204;-48
2021/10/28 06:26:38;;;;;;;;;12.25;12.25;;;;;20.63;41.27;101309.44;5005695;28;51260;-50
2021/10/28 06:29:03;;;;;;;;;19.00;14.50;;;;;20.60;40.87;101303.53;5004268;28;51705;-48
2021/10/28 06:31:29;;;;;;;;;12.75;11.50;;;;;20.56;40.91;101307.78;4999328;28;51118;-47
2021/10/28 06:34:01;;;;;;;;;12.00;10.25;;;;;20.53;41.02;101309.06;5004664;28;51143;-46
2021/10/28 06:36:26;;;;;;;;;17.50;14.00;;;;;20.49;40.86;101315.16;5000515;28;51401;-47
2021/10/28 06:38:52;;;;;;;;;18.00;13.25;;;;;20.44;40.92;101313.06;5000597;28;51734;-47
2021/10/28 06:41:18;;;;;;;;;17.25;13.00;;;;;20.41;40.84;101313.44;5002156;28;51149;-44
2021/10/28 06:43:43;;;;;;;;;14.00;11.25;;;;;20.39;41.85;101307.28;5003775;28;51334;-44
2021/10/28 06:46:09;;;;;;;;;10.00;9.00;;;;;20.42;41.32;101310.50;5003344;28;51368;-48
2021/10/28 06:48:35;;;;;;;;;16.50;10.75;;;;;20.49;41.75;101313.25;5005628;28;51134;-50
2021/10/28 06:51:01;;;;;;;;;9.25;9.25;;;;;20.58;42.04;101323.00;5004444;28;51466;-46
2021/10/28 06:53:31;;;;;;;;;11.50;10.50;;;;;20.69;41.91;101316.03;5001117;28;51156;-48
2021/10/28 07:03:50;;;;;;;;;7.75;7.50;;;;;21.12;41.81;101316.38;5012069;28;51310;-52
2021/10/28 07:06:21;;;;;;;;;8.25;7.00;;;;;21.22;41.79;101325.06;4999421;28;51296;-48
2021/10/28 07:08:50;;;;;;;;;8.00;5.25;;;;;21.31;41.89;101315.53;5006815;28;52841;-46
2021/10/28 07:11:22;;;;;;;;;8.00;8.00;;;;;21.41;42.21;101308.72;4999559;28;51389;-46
2021/10/28 07:13:50;;;;;;;;;6.75;6.00;;;;;21.48;42.19;101306.78;5007469;28;51259;-48
2021/10/28 08:21:42;;;;;;;;;8.00;8.00;;;;;22.20;41.68;101302.84;5007424;28;51328;-45
2021/10/28 08:24:34;;;;;;;;;14.50;9.50;;;;;22.17;42.01;101301.34;5008748;28;51844;-49
2021/10/28 08:29:39;;;;;;;;;13.00;9.50;;;;;22.09;41.71;101306.28;5014209;28;51358;-50
2021/10/28 08:32:07;;;;;;;;;10.25;9.00;;;;;22.07;41.89;101302.91;5008154;28;52812;-47
2021/10/28 08:34:36;;;;;;;;;13.75;10.00;;;;;22.10;41.58;101291.44;5011523;28;51384;-45
2021/10/28 08:39:36;;;;;;;;;11.25;10.50;;;;;22.23;41.55;101302.38;5010385;28;51244;-49
2021/10/28 08:42:07;;;;;;;;;9.00;9.00;;;;;22.31;41.81;101293.84;5007974;28;51275;-50
2021/10/28 08:44:34;;;;;;;;;7.50;7.00;;;;;22.37;41.78;101292.91;5010406;28;51134;-52
2021/10/28 08:47:01;;;;;;;;;8.75;7.25;;;;;22.38;41.94;101282.72;5012257;28;52185;-52
2021/10/28 08:49:36;;;;;;;;;8.25;7.75;;;;;22.38;41.30;101277.19;5010216;28;51255;-49
2021/10/28 09:23:54;;;;;;;;;10.00;8.00;;;;;22.18;42.77;101233.19;5005759;28;51271;-50
2021/10/28 09:25:26;;;;;;;;;12.25;8.25;;;;;22.21;43.02;101230.00;5001269;28;51494;-50
2021/10/28 09:28:15;;;;;;;;;6.00;4.00;;;;;22.24;42.39;101231.47;5009899;28;51699;-53
2021/10/28 09:30:53;;;;;;;;;10.00;9.50;;;;;22.25;42.93;101239.53;5006136;28;51223;-49
2021/10/28 09:33:36;;;;;;;;;9.25;8.50;;;;;22.27;43.23;101225.50;5007812;28;52176;-48
2021/10/28 09:45:17;;;;;;;;;11.00;9.00;;;;;22.34;42.74;101221.63;5006570;28;51117;-49
2021/10/28 09:50:30;;;;;;;;;7.00;7.00;;;;;22.38;43.39;101220.09;5004412;28;51045;-47
2021/10/28 09:53:45;;;;;;;;;9.00;8.75;;;;;22.41;42.82;101216.91;5009734;28;51183;-49
2021/10/28 09:59:06;;;;;;;;;9.50;8.25;;;;;22.44;42.86;101210.91;5002395;28;51524;-47
2021/10/28 10:01:37;;;;;;;;;12.00;9.75;;;;;22.46;42.58;101225.31;5012171;28;51669;-49
2021/10/28 10:04:05;;;;;;;;;9.75;8.00;;;;;22.47;42.92;101210.44;4995929;28;51106;-47
2021/10/28 10:06:37;;;;;;;;;8.75;8.50;;;;;22.48;42.87;101219.56;4995695;28;51188;-50
2021/10/28 10:09:03;;;;;;;;;12.00;7.50;;;;;22.50;42.94;101205.53;4995642;28;51172;-51
2021/10/28 10:11:28;;;;;;;;;9.00;9.00;;;;;22.52;42.67;101208.94;4995815;28;51240;-47
2021/10/28 10:13:56;;;;;;;;;9.75;8.25;;;;;22.51;42.68;101199.81;4996387;28;51153;-43
2021/10/28 10:16:21;;;;;;;;;12.50;8.00;;;;;22.52;42.09;101190.47;4995861;28;51066;-46
2021/10/28 10:18:50;;;;;;;;;9.25;8.75;;;;;22.54;42.41;101181.94;4995397;28;51812;-49
2021/10/28 10:21:39;;;;;;;;;7.50;7.00;;;;;22.55;42.30;101183.63;4995447;28;51058;-46
2021/10/28 11:02:56;;;;;;;;;8.50;8.00;;;;;22.56;42.33;101175.13;5015552;28;51076;-49
2021/10/28 11:15:37;;;;;;;;;5.75;4.75;;;;;22.55;41.60;101136.69;4984672;28;52031;-49
2021/10/28 12:24:08;;;;;;;;;8.00;8.00;;;;;22.12;41.41;100986.66;4960707;28;51038;-47
2021/10/28 12:52:43;;;;;;;;;7.75;7.00;;;;;21.99;41.63;100928.84;5016947;28;51279;-48
2021/10/28 13:06:33;;;;;;;;;7.75;6.75;;;;;21.96;41.97;100884.31;5016495;28;51086;-50
2021/10/28 13:49:36;;;;;;;;;5.75;4.75;;;;;21.85;42.29;100844.56;4995799;28;51277;-48
2021/10/28 13:55:04;;;;;;;;;9.75;6.75;;;;;21.83;42.26;100836.53;4995113;28;51845;-48
2021/10/28 13:58:40;;;;;;;;;8.00;6.25;;;;;21.82;41.83;100843.13;4995942;28;51124;-47
2021/10/28 14:38:05;;;;;;;;;6.75;4.00;;;;;21.77;41.78;100800.75;5014722;28;50996;-49
2021/10/28 15:29:55;;;;;;;;;4.75;4.00;;;;;21.65;42.32;100759.34;4994830;28;51000;-43
2021/10/28 15:34:56;;;;;;;;;3.25;3.25;;;;;21.64;41.83;100759.59;4993872;28;50980;-48
2021/10/28 15:37:45;;;;;;;;;3.75;3.25;;;;;21.64;41.70;100754.06;4994093;28;51150;-46
2021/10/28 15:40:30;;;;;;;;;4.50;4.50;;;;;21.63;41.89;100750.47;4994394;28;51073;-48
2021/10/28 15:59:46;;;;;;;;;3.75;3.75;;;;;21.58;41.81;100722.78;4993931;28;51019;-47
2021/10/28 16:24:07;;;;;;;;;4.00;4.00;;;;;21.51;41.95;100702.72;4997185;28;50885;-49
2021/10/28 16:26:33;;;;;;;;;6.00;4.00;;;;;21.52;41.86;100704.41;5002852;28;52834;-50
2021/10/28 16:29:02;;;;;;;;;4.00;3.25;;;;;21.51;41.65;100698.06;5016776;28;51087;-48
2021/10/28 16:31:27;;;;;;;;;3.00;3.00;;;;;21.50;41.85;100701.91;5016996;28;51256;-51
2021/10/28 16:33:53;;;;;;;;;4.00;4.00;;;;;21.49;42.02;100696.63;5016926;28;50910;-51
2021/10/28 16:36:21;;;;;;;;;5.00;3.50;;;;;21.49;41.85;100699.38;5016739;28;50945;-46
2021/10/28 16:38:47;;;;;;;;;3.00;3.00;;;;;21.48;42.21;100692.19;5016062;28;51114;-50
2021/10/28 16:41:12;;;;;;;;;4.00;4.00;;;;;21.48;41.85;100694.94;5016300;28;51124;-47
2021/10/28 16:43:37;;;;;;;;;3.75;3.25;;;;;21.47;42.19;100691.34;5016468;28;51229;-44
2021/10/28 16:46:03;;;;;;;;;5.00;4.00;;;;;21.47;41.96;100694.09;5015890;28;51341;-46
2021/10/28 16:48:28;;;;;;;;;3.75;3.25;;;;;21.47;41.58;100696.00;5016212;28;51190;-47
2021/10/28 16:50:54;;;;;;;;;4.00;4.00;;;;;21.46;41.64;100688.78;5016453;28;50993;-49
2021/10/28 16:53:20;;;;;;;;;5.00;5.00;;;;;21.43;42.01;100679.09;5015655;28;51033;-48
2021/10/28 16:55:46;;;;;;;;;3.25;3.25;;;;;21.44;41.85;100691.78;5015642;28;51166;-45
2021/10/28 16:58:12;;;;;;;;;5.50;4.00;;;;;21.44;41.75;100682.69;5016061;28;51015;-44
2021/10/28 17:00:37;;;;;;;;;5.50;5.00;;;;;21.43;41.88;100675.50;5016246;28;50893;-46
2021/10/28 17:03:03;;;;;;;;;3.00;3.00;;;;;21.43;42.22;100678.25;4998168;28;51051;-48
2021/10/28 17:05:29;;;;;;;;;6.00;4.25;;;;;21.42;42.15;100680.16;5016183;28;51832;-47
2021/10/28 17:07:54;;;;;;;;;5.00;3.25;;;;;21.42;42.01;100684.84;4997725;28;51110;-48
2021/10/28 17:10:20;;;;;;;;;5.00;4.75;;;;;21.41;41.70;100688.66;5016173;28;51010;-49
2021/10/28 17:12:45;;;;;;;;;4.25;4.25;;;;;21.40;42.14;100685.06;5016297;28;51134;-48
2021/10/28 17:15:11;;;;;;;;;5.75;4.00;;;;;21.39;42.23;100688.06;5014478;28;51002;-50
2021/10/28 17:17:36;;;;;;;;;4.00;4.00;;;;;21.38;42.07;100687.22;5015914;28;50959;-51
2021/10/28 17:20:07;;;;;;;;;4.50;4.50;;;;;21.39;41.65;100688.06;5015461;28;51081;-49
2021/10/28 17:22:34;;;;;;;;;6.00;4.75;;;;;21.38;42.25;100695.50;5016071;28;51033;-46
2021/10/28 17:25:02;;;;;;;;;4.25;4.25;;;;;21.38;41.67;100692.72;5015635;28;51212;-43
2021/10/28 17:27:28;;;;;;;;;5.00;4.00;;;;;21.37;42.18;100696.56;4984436;28;51358;-43
2021/10/28 17:29:53;;;;;;;;;6.00;4.00;;;;;21.37;41.83;100692.97;4995780;28;51247;-48
2021/10/28 17:32:18;;;;;;;;;6.75;4.00;;;;;21.37;41.80;100690.22;4995792;28;51023;-47
2021/10/28 17:34:44;;;;;;;;;6.00;4.00;;;;;21.36;41.88;100692.09;4995681;28;51808;-48
2021/10/28 17:37:09;;;;;;;;;5.00;5.00;;;;;21.35;41.94;100689.56;4995550;28;51214;-46
2021/10/28 17:39:35;;;;;;;;;6.00;5.00;;;;;21.33;42.18;100690.66;4995494;28;51164;-46
2021/10/28 17:42:00;;;;;;;;;4.25;4.25;;;;;21.33;41.73;100690.66;4995657;28;51005;-50
2021/10/28 17:44:43;;;;;;;;;4.25;4.25;;;;;21.34;41.88;100694.25;4995772;28;52679;-46
2021/10/28 17:47:09;;;;;;;;;5.00;4.00;;;;;21.32;42.28;100686.22;4995724;28;51417;-45
2021/10/28 17:49:36;;;;;;;;;6.00;4.50;;;;;21.31;42.21;100692.81;4995639;28;51119;-47
2021/10/28 17:52:05;;;;;;;;;4.00;4.00;;;;;21.31;41.76;100689.22;4996256;28;51166;-47
2021/10/28 17:54:30;;;;;;;;;3.50;3.50;;;;;21.32;41.84;100696.41;4994911;28;51044;-47
2021/10/28 17:56:56;;;;;;;;;3.75;3.75;;;;;21.31;42.25;100687.28;4995939;28;51071;-50
2021/10/28 17:59:22;;;;;;;;;4.50;4.00;;;;;21.31;42.00;100684.53;4995319;28;51230;-49
2021/10/28 18:01:49;;;;;;;;;4.00;4.00;;;;;21.29;41.89;100688.59;4995710;28;51252;-45
2021/10/28 18:04:14;;;;;;;;;5.00;3.00;;;;;21.30;42.07;100690.28;4994864;28;51806;-46
2021/10/28 18:06:40;;;;;;;;;6.25;4.75;;;;;21.28;41.83;100682.25;4995497;28;51382;-46
2021/10/28 18:09:06;;;;;;;;;5.00;5.00;;;;;21.28;42.21;100687.78;4994929;28;51198;-46
2021/10/28 18:11:32;;;;;;;;;5.25;5.25;;;;;21.28;42.38;100686.94;4995285;28;51033;-47
2021/10/28 18:13:59;;;;;;;;;5.75;4.50;;;;;21.26;42.12;100678.91;4995224;28;51800;-45
2021/10/28 18:16:29;;;;;;;;;4.25;4.25;;;;;21.26;41.89;100678.91;4995416;28;51290;-50
2021/10/28 18:18:56;;;;;;;;;6.00;6.00;;;;;21.26;42.39;100680.81;4995749;28;51144;-48
2021/10/28 18:21:23;;;;;;;;;7.50;4.75;;;;;21.25;41.81;100682.66;4995807;28;51165;-44
2021/10/28 18:23:50;;;;;;;;;4.00;4.00;;;;;21.24;42.19;100681.00;4994580;28;51719;-50
2021/10/28 18:26:20;;;;;;;;;5.00;5.00;;;;;21.24;42.13;100678.22;4998399;28;51112;-48
2021/10/28 18:28:50;;;;;;;;;5.75;5.75;;;;;21.24;42.30;100677.38;4997009;28;51121;-45
2021/10/28 18:31:15;;;;;;;;;4.25;4.00;;;;;21.24;41.83;100671.88;5014888;28;50967;-48
2021/10/28 18:33:43;;;;;;;;;5.50;4.50;;;;;21.22;41.95;100677.63;5014799;28;51212;-48
2021/10/28 18:36:09;;;;;;;;;3.75;3.75;;;;;21.23;41.94;100678.47;5015121;28;51374;-45
2021/10/28 18:38:36;;;;;;;;;6.00;5.00;;;;;21.23;41.80;100682.06;4997232;28;51047;-49
2021/10/28 18:41:03;;;;;;;;;8.00;6.00;;;;;21.22;42.25;100674.03;5015518;28;51273;-45
2021/10/28 18:43:28;;;;;;;;;5.50;5.25;;;;;21.21;42.30;100670.44;5015099;28;51954;-46
2021/10/28 18:45:55;;;;;;;;;7.75;5.25;;;;;21.20;42.24;100677.03;5014701;28;51137;-45
2021/10/28 18:48:22;;;;;;;;;6.25;5.25;;;;;21.20;42.21;100663.25;5014766;28;51107;-46
2021/10/28 18:50:48;;;;;;;;;5.75;5.75;;;;;21.19;42.29;100663.50;5015149;28;51016;-50
2021/10/28 18:53:13;;;;;;;;;6.25;5.25;;;;;21.18;42.05;100654.38;5014516;28;51126;-47
2021/10/28 18:55:39;;;;;;;;;6.50;5.75;;;;;21.18;42.36;100648.88;5015012;28;51191;-46
2021/10/28 18:58:06;;;;;;;;;6.25;6.25;;;;;21.19;42.23;100660.72;5014521;28;51093;-45
2021/10/28 19:00:31;;;;;;;;;8.50;7.50;;;;;21.18;42.37;100654.38;5015258;28;51000;-46
2021/10/28 19:02:58;;;;;;;;;5.25;5.25;;;;;21.17;42.34;100658.22;5014396;28;51886;-47
2021/10/28 19:05:23;;;;;;;;;5.75;5.75;;;;;21.18;42.04;100650.78;5015021;28;51126;-44
2021/10/28 19:07:49;;;;;;;;;7.50;5.75;;;;;21.17;42.08;100644.44;5014389;28;51213;-43
2021/10/28 19:10:14;;;;;;;;;6.25;6.25;;;;;21.17;42.16;100652.72;5014764;28;51136;-45
2021/10/28 19:12:41;;;;;;;;;6.75;5.75;;;;;21.16;41.97;100640.00;5014643;28;51196;-45
2021/10/28 19:15:07;;;;;;;;;7.00;7.00;;;;;21.16;41.98;100650.19;5014748;28;51099;-49
2021/10/28 19:17:33;;;;;;;;;7.50;7.25;;;;;21.15;42.24;100645.72;5014824;28;51105;-48
2021/10/28 19:20:00;;;;;;;;;6.25;6.00;;;;;21.15;42.37;100641.06;5014945;28;50995;-48
2021/10/28 19:22:30;;;;;;;;;8.75;6.25;;;;;21.14;42.02;100636.63;5014515;28;51853;-46
2021/10/28 19:24:56;;;;;;;;;8.25;8.25;;;;;21.14;42.47;100633.88;5014785;28;50953;-47
2021/10/28 19:27:21;;;;;;;;;8.00;7.50;;;;;21.14;41.97;100638.53;5002082;28;51145;-48
2021/10/28 19:29:53;;;;;;;;;8.75;5.75;;;;;21.13;42.02;100634.94;4994800;28;51120;-46
2021/10/28 19:32:21;;;;;;;;;10.75;8.00;;;;;21.12;42.25;100629.66;4994541;28;52572;-48
2021/10/28 19:34:48;;;;;;;;;9.50;7.00;;;;;21.12;42.33;100624.16;4994922;28;51478;-48
2021/10/28 19:47:39;;;;;;;;;9.75;7.75;;;;;21.08;41.95;100610.03;4994844;28;50983;-43
2021/10/28 19:50:06;;;;;;;;;10.50;7.00;;;;;21.09;42.06;100610.88;4994685;28;51326;-45
2021/10/28 19:52:31;;;;;;;;;7.75;7.75;;;;;21.09;41.98;100605.34;4994301;28;50999;-43
2021/10/28 19:55:01;;;;;;;;;6.00;5.50;;;;;21.08;42.51;100603.69;4994634;28;51010;-51
2021/10/28 19:57:30;;;;;;;;;11.25;9.25;;;;;21.07;42.04;100604.75;4994765;28;51143;-44
2021/10/28 20:00:01;;;;;;;;;8.75;7.25;;;;;21.07;42.50;100608.34;4994800;28;51173;-48
2021/10/28 20:21:06;;;;;;;;;8.25;8.00;;;;;21.01;42.17;100593.56;4994414;28;51181;-44
2021/10/28 20:23:31;;;;;;;;;9.75;8.75;;;;;21.02;42.18;100599.91;4993422;28;51042;-43
2021/10/28 20:25:57;;;;;;;;;11.50;8.75;;;;;21.02;42.17;100599.91;4995664;28;51141;-44
2021/10/28 20:28:23;;;;;;;;;7.50;7.50;;;;;21.01;42.34;100601.00;4996498;28;51279;-42
2021/10/28 20:30:55;;;;;;;;;8.25;8.25;;;;;21.01;42.42;100592.72;5014350;28;51288;-47
2021/10/28 20:33:22;;;;;;;;;7.75;7.50;;;;;21.01;42.39;100590.81;5013699;28;51966;-44
2021/10/28 20:38:17;;;;;;;;;10.75;8.25;;;;;21.00;42.02;100585.56;5013927;28;51097;-46